sensor_id;sensor_type;location;lat;lon;timestamp;P1;durP1;ratioP1;P2;durP2;ratioP2
62863;SDS011;48954;59.950;11.014;2023-06-14T00:01:09;13.20;;;8.30;;
62863;SDS011;48954;59.950;11.014;2023-06-14T00:03:43;14.30;;;7.90;;
62863;SDS011;48954;59.950;11.014;2023-06-14T00:06:10;11.20;;;7.00;;
62863;SDS011;48954;59.950;11.014;2023-06-14T00:08:36;11.80;;;7.60;;
62863;SDS011;48954;59.950;11.014;2023-06-14T00:11:03;11.40;;;7.60;;
62863;SDS011;48954;59.950;11.014;2023-06-14T00:13:34;12.20;;;7.20;;
62863;SDS011;48954;59.950;11.014;2023-06-14T00:16:01;13.40;;;8.00;;
62863;SDS011;48954;59.950;11.014;2023-06-14T00:18:28;15.40;;;7.30;;
62863;SDS011;48954;59.950;11.014;2023-06-14T00:20:54;10.70;;;6.90;;
62863;SDS011;48954;59.950;11.014;2023-06-14T00:23:24;11.00;;;7.70;;
62863;SDS011;48954;59.950;11.014;2023-06-14T00:25:50;12.20;;;7.80;;
62863;SDS011;48954;59.950;11.014;2023-06-14T00:28:17;8.90;;;7.20;;
62863;SDS011;48954;59.950;11.014;2023-06-14T00:30:43;11.40;;;7.60;;
62863;SDS011;48954;59.950;11.014;2023-06-14T00:33:10;13.10;;;7.30;;
62863;SDS011;48954;59.950;11.014;2023-06-14T00:35:36;12.80;;;7.20;;
62863;SDS011;48954;59.950;11.014;2023-06-14T00:38:04;10.90;;;7.90;;
62863;SDS011;48954;59.950;11.014;2023-06-14T00:40:31;9.90;;;7.10;;
62863;SDS011;48954;59.950;11.014;2023-06-14T00:42:57;10.50;;;7.10;;
62863;SDS011;48954;59.950;11.014;2023-06-14T00:45:24;13.00;;;7.10;;
62863;SDS011;48954;59.950;11.014;2023-06-14T00:47:51;11.40;;;7.20;;
62863;SDS011;48954;59.950;11.014;2023-06-14T00:50:18;13.20;;;7.90;;
62863;SDS011;48954;59.950;11.014;2023-06-14T00:52:47;12.70;;;7.90;;
62863;SDS011;48954;59.950;11.014;2023-06-14T00:55:13;11.10;;;7.40;;
62863;SDS011;48954;59.950;11.014;2023-06-14T00:57:40;11.80;;;7.70;;
62863;SDS011;48954;59.950;11.014;2023-06-14T01:00:07;11.10;;;7.60;;
62863;SDS011;48954;59.950;11.014;2023-06-14T01:02:35;11.00;;;8.20;;
62863;SDS011;48954;59.950;11.014;2023-06-14T01:05:03;14.60;;;8.00;;
62863;SDS011;48954;59.950;11.014;2023-06-14T01:10:21;14.10;;;7.10;;
62863;SDS011;48954;59.950;11.014;2023-06-14T01:15:49;14.30;;;7.40;;
62863;SDS011;48954;59.950;11.014;2023-06-14T01:18:17;10.90;;;7.30;;
62863;SDS011;48954;59.950;11.014;2023-06-14T01:20:45;10.70;;;7.30;;
62863;SDS011;48954;59.950;11.014;2023-06-14T01:23:19;12.40;;;7.90;;
62863;SDS011;48954;59.950;11.014;2023-06-14T01:25:46;12.10;;;7.40;;
62863;SDS011;48954;59.950;11.014;2023-06-14T01:28:17;8.90;;;6.80;;
62863;SDS011;48954;59.950;11.014;2023-06-14T01:30:46;11.20;;;7.20;;
62863;SDS011;48954;59.950;11.014;2023-06-14T01:33:16;10.00;;;7.90;;
62863;SDS011;48954;59.950;11.014;2023-06-14T01:35:52;12.00;;;7.30;;
62863;SDS011;48954;59.950;11.014;2023-06-14T01:38:21;12.10;;;7.10;;
62863;SDS011;48954;59.950;11.014;2023-06-14T01:40:50;9.30;;;7.10;;
62863;SDS011;48954;59.950;11.014;2023-06-14T01:43:19;10.90;;;7.20;;
62863;SDS011;48954;59.950;11.014;2023-06-14T01:45:46;10.40;;;7.30;;
62863;SDS011;48954;59.950;11.014;2023-06-14T01:48:14;12.40;;;6.90;;
62863;SDS011;48954;59.950;11.014;2023-06-14T01:50:41;11.70;;;7.50;;
62863;SDS011;48954;59.950;11.014;2023-06-14T01:53:08;10.90;;;7.40;;
62863;SDS011;48954;59.950;11.014;2023-06-14T01:55:36;11.40;;;7.70;;
62863;SDS011;48954;59.950;11.014;2023-06-14T01:58:03;11.20;;;7.80;;
62863;SDS011;48954;59.950;11.014;2023-06-14T02:00:30;10.60;;;7.70;;
62863;SDS011;48954;59.950;11.014;2023-06-14T02:02:56;10.30;;;7.90;;
62863;SDS011;48954;59.950;11.014;2023-06-14T02:05:23;15.80;;;7.10;;
62863;SDS011;48954;59.950;11.014;2023-06-14T02:07:50;10.30;;;7.10;;
62863;SDS011;48954;59.950;11.014;2023-06-14T02:10:17;10.30;;;7.40;;
62863;SDS011;48954;59.950;11.014;2023-06-14T02:12:44;10.60;;;7.70;;
62863;SDS011;48954;59.950;11.014;2023-06-14T02:15:10;11.10;;;7.50;;
62863;SDS011;48954;59.950;11.014;2023-06-14T02:17:37;10.90;;;7.80;;
62863;SDS011;48954;59.950;11.014;2023-06-14T02:20:03;9.90;;;7.90;;
62863;SDS011;48954;59.950;11.014;2023-06-14T02:22:31;11.20;;;8.00;;
62863;SDS011;48954;59.950;11.014;2023-06-14T02:24:57;10.00;;;7.80;;
62863;SDS011;48954;59.950;11.014;2023-06-14T02:27:24;12.50;;;7.90;;
62863;SDS011;48954;59.950;11.014;2023-06-14T02:29:50;13.10;;;8.60;;
62863;SDS011;48954;59.950;11.014;2023-06-14T02:32:17;11.80;;;8.50;;
62863;SDS011;48954;59.950;11.014;2023-06-14T02:34:45;11.10;;;7.60;;
62863;SDS011;48954;59.950;11.014;2023-06-14T02:37:11;9.40;;;7.10;;
62863;SDS011;48954;59.950;11.014;2023-06-14T02:39:37;13.10;;;8.00;;
62863;SDS011;48954;59.950;11.014;2023-06-14T02:42:04;10.60;;;7.50;;
62863;SDS011;48954;59.950;11.014;2023-06-14T02:44:31;11.00;;;7.70;;
62863;SDS011;48954;59.950;11.014;2023-06-14T02:46:57;10.50;;;7.50;;
62863;SDS011;48954;59.950;11.014;2023-06-14T02:49:23;12.10;;;8.20;;
62863;SDS011;48954;59.950;11.014;2023-06-14T02:51:50;12.30;;;8.10;;
62863;SDS011;48954;59.950;11.014;2023-06-14T02:54:17;15.20;;;8.50;;
62863;SDS011;48954;59.950;11.014;2023-06-14T02:56:44;11.80;;;8.00;;
62863;SDS011;48954;59.950;11.014;2023-06-14T02:59:10;13.40;;;7.90;;
62863;SDS011;48954;59.950;11.014;2023-06-14T03:01:37;13.00;;;8.60;;
62863;SDS011;48954;59.950;11.014;2023-06-14T03:04:03;11.30;;;8.10;;
62863;SDS011;48954;59.950;11.014;2023-06-14T03:06:30;11.60;;;8.10;;
62863;SDS011;48954;59.950;11.014;2023-06-14T03:08:57;12.80;;;8.40;;
62863;SDS011;48954;59.950;11.014;2023-06-14T03:11:24;12.90;;;8.10;;
62863;SDS011;48954;59.950;11.014;2023-06-14T03:13:51;12.40;;;9.00;;
62863;SDS011;48954;59.950;11.014;2023-06-14T03:16:18;13.00;;;9.60;;
62863;SDS011;48954;59.950;11.014;2023-06-14T03:18:45;11.60;;;9.00;;
62863;SDS011;48954;59.950;11.014;2023-06-14T03:21:11;11.70;;;9.30;;
62863;SDS011;48954;59.950;11.014;2023-06-14T03:23:38;12.30;;;8.80;;
62863;SDS011;48954;59.950;11.014;2023-06-14T03:26:04;13.40;;;9.30;;
62863;SDS011;48954;59.950;11.014;2023-06-14T03:28:30;12.10;;;9.00;;
62863;SDS011;48954;59.950;11.014;2023-06-14T03:30:57;11.80;;;8.80;;
62863;SDS011;48954;59.950;11.014;2023-06-14T03:33:23;11.60;;;8.80;;
62863;SDS011;48954;59.950;11.014;2023-06-14T03:35:50;14.00;;;8.50;;
62863;SDS011;48954;59.950;11.014;2023-06-14T03:38:16;12.30;;;9.00;;
62863;SDS011;48954;59.950;11.014;2023-06-14T03:40:42;15.10;;;9.50;;
62863;SDS011;48954;59.950;11.014;2023-06-14T03:43:09;17.00;;;9.70;;
62863;SDS011;48954;59.950;11.014;2023-06-14T03:45:36;11.20;;;9.00;;
62863;SDS011;48954;59.950;11.014;2023-06-14T03:48:02;14.30;;;8.60;;
62863;SDS011;48954;59.950;11.014;2023-06-14T03:50:29;10.40;;;9.10;;
62863;SDS011;48954;59.950;11.014;2023-06-14T03:53:06;12.20;;;9.10;;
62863;SDS011;48954;59.950;11.014;2023-06-14T03:55:33;12.60;;;8.40;;
62863;SDS011;48954;59.950;11.014;2023-06-14T03:57:59;10.10;;;7.80;;
62863;SDS011;48954;59.950;11.014;2023-06-14T04:00:26;10.60;;;8.70;;
62863;SDS011;48954;59.950;11.014;2023-06-14T04:02:52;9.90;;;8.60;;
62863;SDS011;48954;59.950;11.014;2023-06-14T04:05:19;12.00;;;8.70;;
62863;SDS011;48954;59.950;11.014;2023-06-14T04:07:46;12.40;;;9.70;;
62863;SDS011;48954;59.950;11.014;2023-06-14T04:10:12;11.90;;;9.30;;
62863;SDS011;48954;59.950;11.014;2023-06-14T04:12:39;12.20;;;8.90;;
62863;SDS011;48954;59.950;11.014;2023-06-14T04:15:06;14.30;;;9.80;;
62863;SDS011;48954;59.950;11.014;2023-06-14T04:17:33;12.50;;;10.10;;
62863;SDS011;48954;59.950;11.014;2023-06-14T04:20:00;13.40;;;8.40;;
62863;SDS011;48954;59.950;11.014;2023-06-14T04:22:27;14.60;;;10.00;;
62863;SDS011;48954;59.950;11.014;2023-06-14T04:24:54;14.10;;;9.20;;
62863;SDS011;48954;59.950;11.014;2023-06-14T04:27:21;11.50;;;8.80;;
62863;SDS011;48954;59.950;11.014;2023-06-14T04:29:47;14.20;;;9.10;;
62863;SDS011;48954;59.950;11.014;2023-06-14T04:32:14;14.20;;;10.20;;
62863;SDS011;48954;59.950;11.014;2023-06-14T04:34:40;11.00;;;9.00;;
62863;SDS011;48954;59.950;11.014;2023-06-14T04:37:07;11.40;;;9.60;;
62863;SDS011;48954;59.950;11.014;2023-06-14T04:39:33;14.30;;;9.70;;
62863;SDS011;48954;59.950;11.014;2023-06-14T04:42:00;10.80;;;8.70;;
62863;SDS011;48954;59.950;11.014;2023-06-14T04:44:26;12.90;;;9.40;;
62863;SDS011;48954;59.950;11.014;2023-06-14T04:46:53;10.80;;;8.80;;
62863;SDS011;48954;59.950;11.014;2023-06-14T04:49:19;11.90;;;8.60;;
62863;SDS011;48954;59.950;11.014;2023-06-14T04:51:46;13.60;;;10.00;;
62863;SDS011;48954;59.950;11.014;2023-06-14T04:54:13;14.20;;;10.00;;
62863;SDS011;48954;59.950;11.014;2023-06-14T04:56:39;14.40;;;9.90;;
62863;SDS011;48954;59.950;11.014;2023-06-14T04:59:06;11.00;;;9.50;;
62863;SDS011;48954;59.950;11.014;2023-06-14T05:01:33;10.70;;;8.50;;
62863;SDS011;48954;59.950;11.014;2023-06-14T05:04:00;10.90;;;9.10;;
62863;SDS011;48954;59.950;11.014;2023-06-14T05:06:28;12.40;;;9.80;;
62863;SDS011;48954;59.950;11.014;2023-06-14T05:08:56;13.60;;;9.40;;
62863;SDS011;48954;59.950;11.014;2023-06-14T05:11:22;12.30;;;8.80;;
62863;SDS011;48954;59.950;11.014;2023-06-14T05:13:49;14.40;;;9.50;;
62863;SDS011;48954;59.950;11.014;2023-06-14T05:16:16;12.30;;;9.80;;
62863;SDS011;48954;59.950;11.014;2023-06-14T05:18:43;14.30;;;9.80;;
62863;SDS011;48954;59.950;11.014;2023-06-14T05:21:09;13.10;;;8.60;;
62863;SDS011;48954;59.950;11.014;2023-06-14T05:23:36;13.30;;;9.40;;
62863;SDS011;48954;59.950;11.014;2023-06-14T05:26:02;11.40;;;9.20;;
62863;SDS011;48954;59.950;11.014;2023-06-14T05:28:29;13.00;;;8.80;;
62863;SDS011;48954;59.950;11.014;2023-06-14T05:30:55;10.50;;;9.20;;
62863;SDS011;48954;59.950;11.014;2023-06-14T05:33:22;13.10;;;9.00;;
62863;SDS011;48954;59.950;11.014;2023-06-14T05:35:49;12.30;;;8.50;;
62863;SDS011;48954;59.950;11.014;2023-06-14T05:38:15;12.80;;;8.80;;
62863;SDS011;48954;59.950;11.014;2023-06-14T05:40:42;11.60;;;8.70;;
62863;SDS011;48954;59.950;11.014;2023-06-14T05:43:10;11.50;;;9.30;;
62863;SDS011;48954;59.950;11.014;2023-06-14T05:45:37;10.20;;;9.10;;
62863;SDS011;48954;59.950;11.014;2023-06-14T05:48:04;11.90;;;9.00;;
62863;SDS011;48954;59.950;11.014;2023-06-14T05:50:30;12.80;;;8.60;;
62863;SDS011;48954;59.950;11.014;2023-06-14T05:52:57;14.50;;;9.50;;
62863;SDS011;48954;59.950;11.014;2023-06-14T05:55:25;10.40;;;9.00;;
62863;SDS011;48954;59.950;11.014;2023-06-14T05:57:53;13.90;;;9.10;;
62863;SDS011;48954;59.950;11.014;2023-06-14T06:00:19;12.70;;;8.90;;
62863;SDS011;48954;59.950;11.014;2023-06-14T06:02:46;11.60;;;8.60;;
62863;SDS011;48954;59.950;11.014;2023-06-14T06:05:13;11.70;;;9.40;;
62863;SDS011;48954;59.950;11.014;2023-06-14T06:07:40;13.10;;;9.00;;
62863;SDS011;48954;59.950;11.014;2023-06-14T06:10:06;13.90;;;9.30;;
62863;SDS011;48954;59.950;11.014;2023-06-14T06:12:33;10.30;;;8.70;;
62863;SDS011;48954;59.950;11.014;2023-06-14T06:15:00;10.00;;;8.50;;
62863;SDS011;48954;59.950;11.014;2023-06-14T06:17:26;10.90;;;8.90;;
62863;SDS011;48954;59.950;11.014;2023-06-14T06:19:53;12.30;;;8.10;;
62863;SDS011;48954;59.950;11.014;2023-06-14T06:22:20;12.80;;;9.50;;
62863;SDS011;48954;59.950;11.014;2023-06-14T06:24:46;12.80;;;8.90;;
62863;SDS011;48954;59.950;11.014;2023-06-14T06:27:13;12.90;;;9.10;;
62863;SDS011;48954;59.950;11.014;2023-06-14T06:29:41;11.80;;;8.80;;
62863;SDS011;48954;59.950;11.014;2023-06-14T06:32:08;14.20;;;9.20;;
62863;SDS011;48954;59.950;11.014;2023-06-14T06:34:35;10.40;;;8.70;;
62863;SDS011;48954;59.950;11.014;2023-06-14T06:37:02;15.10;;;9.50;;
62863;SDS011;48954;59.950;11.014;2023-06-14T06:39:28;13.30;;;8.50;;
62863;SDS011;48954;59.950;11.014;2023-06-14T06:41:55;15.70;;;8.80;;
62863;SDS011;48954;59.950;11.014;2023-06-14T06:44:21;10.30;;;8.10;;
62863;SDS011;48954;59.950;11.014;2023-06-14T06:46:50;12.80;;;9.50;;
62863;SDS011;48954;59.950;11.014;2023-06-14T06:49:17;14.10;;;9.40;;
62863;SDS011;48954;59.950;11.014;2023-06-14T06:51:43;11.90;;;8.00;;
62863;SDS011;48954;59.950;11.014;2023-06-14T06:54:25;11.00;;;8.00;;
62863;SDS011;48954;59.950;11.014;2023-06-14T06:56:54;10.70;;;8.40;;
62863;SDS011;48954;59.950;11.014;2023-06-14T06:59:21;9.10;;;7.20;;
62863;SDS011;48954;59.950;11.014;2023-06-14T07:01:48;10.10;;;7.00;;
62863;SDS011;48954;59.950;11.014;2023-06-14T07:04:14;9.70;;;6.70;;
62863;SDS011;48954;59.950;11.014;2023-06-14T07:06:46;8.40;;;5.80;;
62863;SDS011;48954;59.950;11.014;2023-06-14T07:09:13;8.30;;;6.50;;
62863;SDS011;48954;59.950;11.014;2023-06-14T07:11:39;8.60;;;5.90;;
62863;SDS011;48954;59.950;11.014;2023-06-14T07:14:07;7.50;;;6.50;;
62863;SDS011;48954;59.950;11.014;2023-06-14T07:16:40;7.80;;;6.10;;
62863;SDS011;48954;59.950;11.014;2023-06-14T07:19:06;12.10;;;5.60;;
62863;SDS011;48954;59.950;11.014;2023-06-14T07:21:40;8.70;;;6.40;;
62863;SDS011;48954;59.950;11.014;2023-06-14T07:24:07;8.90;;;6.00;;
62863;SDS011;48954;59.950;11.014;2023-06-14T07:26:33;7.20;;;5.80;;
62863;SDS011;48954;59.950;11.014;2023-06-14T07:29:01;11.60;;;6.20;;
62863;SDS011;48954;59.950;11.014;2023-06-14T07:31:28;8.60;;;5.90;;
62863;SDS011;48954;59.950;11.014;2023-06-14T07:33:54;7.80;;;6.00;;
62863;SDS011;48954;59.950;11.014;2023-06-14T07:36:21;8.60;;;6.50;;
62863;SDS011;48954;59.950;11.014;2023-06-14T07:38:48;7.40;;;6.00;;
62863;SDS011;48954;59.950;11.014;2023-06-14T07:41:17;7.00;;;5.80;;
62863;SDS011;48954;59.950;11.014;2023-06-14T07:43:43;6.50;;;5.80;;
62863;SDS011;48954;59.950;11.014;2023-06-14T07:46:10;6.70;;;5.60;;
62863;SDS011;48954;59.950;11.014;2023-06-14T07:48:36;6.50;;;5.80;;
62863;SDS011;48954;59.950;11.014;2023-06-14T07:51:03;6.90;;;5.40;;
62863;SDS011;48954;59.950;11.014;2023-06-14T07:53:31;8.00;;;5.60;;
62863;SDS011;48954;59.950;11.014;2023-06-14T07:55:57;8.00;;;5.50;;
62863;SDS011;48954;59.950;11.014;2023-06-14T07:58:24;6.50;;;5.40;;
62863;SDS011;48954;59.950;11.014;2023-06-14T08:00:50;7.20;;;6.00;;
62863;SDS011;48954;59.950;11.014;2023-06-14T08:03:17;7.40;;;6.00;;
62863;SDS011;48954;59.950;11.014;2023-06-14T08:05:43;10.50;;;5.90;;
62863;SDS011;48954;59.950;11.014;2023-06-14T08:08:10;7.00;;;6.30;;
62863;SDS011;48954;59.950;11.014;2023-06-14T08:10:36;6.30;;;5.60;;
62863;SDS011;48954;59.950;11.014;2023-06-14T08:13:03;8.30;;;6.40;;
62863;SDS011;48954;59.950;11.014;2023-06-14T08:15:29;8.20;;;6.50;;
62863;SDS011;48954;59.950;11.014;2023-06-14T08:17:56;7.50;;;6.30;;
62863;SDS011;48954;59.950;11.014;2023-06-14T08:20:22;6.70;;;5.80;;
62863;SDS011;48954;59.950;11.014;2023-06-14T08:22:49;8.50;;;6.20;;
62863;SDS011;48954;59.950;11.014;2023-06-14T08:25:15;6.40;;;5.70;;
62863;SDS011;48954;59.950;11.014;2023-06-14T08:27:42;6.90;;;6.10;;
62863;SDS011;48954;59.950;11.014;2023-06-14T08:30:10;9.50;;;6.20;;
62863;SDS011;48954;59.950;11.014;2023-06-14T08:32:37;10.10;;;6.20;;
62863;SDS011;48954;59.950;11.014;2023-06-14T08:35:04;7.10;;;5.80;;
62863;SDS011;48954;59.950;11.014;2023-06-14T08:37:30;7.80;;;6.70;;
62863;SDS011;48954;59.950;11.014;2023-06-14T08:39:57;8.90;;;5.70;;
62863;SDS011;48954;59.950;11.014;2023-06-14T08:42:24;14.20;;;6.50;;
62863;SDS011;48954;59.950;11.014;2023-06-14T08:44:50;7.90;;;6.10;;
62863;SDS011;48954;59.950;11.014;2023-06-14T08:47:17;7.10;;;5.90;;
62863;SDS011;48954;59.950;11.014;2023-06-14T08:49:45;8.70;;;6.40;;
62863;SDS011;48954;59.950;11.014;2023-06-14T08:52:13;6.70;;;6.00;;
62863;SDS011;48954;59.950;11.014;2023-06-14T08:54:42;6.40;;;5.60;;
62863;SDS011;48954;59.950;11.014;2023-06-14T08:57:12;7.00;;;6.10;;
62863;SDS011;48954;59.950;11.014;2023-06-14T08:59:43;6.60;;;5.90;;
62863;SDS011;48954;59.950;11.014;2023-06-14T09:02:13;7.30;;;5.40;;
62863;SDS011;48954;59.950;11.014;2023-06-14T09:04:45;6.20;;;4.90;;
62863;SDS011;48954;59.950;11.014;2023-06-14T09:07:12;7.50;;;5.80;;
62863;SDS011;48954;59.950;11.014;2023-06-14T09:09:39;11.00;;;5.20;;
62863;SDS011;48954;59.950;11.014;2023-06-14T09:12:07;7.80;;;6.20;;
62863;SDS011;48954;59.950;11.014;2023-06-14T09:14:36;5.90;;;5.00;;
62863;SDS011;48954;59.950;11.014;2023-06-14T09:17:03;6.70;;;5.20;;
62863;SDS011;48954;59.950;11.014;2023-06-14T09:19:29;6.90;;;5.30;;
62863;SDS011;48954;59.950;11.014;2023-06-14T09:21:56;7.60;;;6.00;;
62863;SDS011;48954;59.950;11.014;2023-06-14T09:24:25;5.90;;;5.00;;
62863;SDS011;48954;59.950;11.014;2023-06-14T09:26:52;8.70;;;6.20;;
62863;SDS011;48954;59.950;11.014;2023-06-14T09:29:19;8.10;;;6.60;;
62863;SDS011;48954;59.950;11.014;2023-06-14T09:31:47;8.90;;;6.50;;
62863;SDS011;48954;59.950;11.014;2023-06-14T09:34:13;9.10;;;6.10;;
62863;SDS011;48954;59.950;11.014;2023-06-14T09:36:42;7.30;;;5.70;;
62863;SDS011;48954;59.950;11.014;2023-06-14T09:39:08;8.70;;;5.90;;
62863;SDS011;48954;59.950;11.014;2023-06-14T09:41:36;6.40;;;5.80;;
62863;SDS011;48954;59.950;11.014;2023-06-14T09:44:04;6.20;;;5.60;;
62863;SDS011;48954;59.950;11.014;2023-06-14T09:46:32;7.20;;;5.60;;
62863;SDS011;48954;59.950;11.014;2023-06-14T09:48:59;6.80;;;6.10;;
62863;SDS011;48954;59.950;11.014;2023-06-14T09:51:27;5.90;;;5.30;;
62863;SDS011;48954;59.950;11.014;2023-06-14T09:53:55;8.70;;;5.50;;
62863;SDS011;48954;59.950;11.014;2023-06-14T09:56:28;9.10;;;5.70;;
62863;SDS011;48954;59.950;11.014;2023-06-14T09:58:57;7.60;;;5.10;;
62863;SDS011;48954;59.950;11.014;2023-06-14T10:01:24;7.80;;;5.60;;
62863;SDS011;48954;59.950;11.014;2023-06-14T10:04:02;7.30;;;5.50;;
62863;SDS011;48954;59.950;11.014;2023-06-14T10:06:35;6.50;;;5.80;;
62863;SDS011;48954;59.950;11.014;2023-06-14T10:09:04;6.40;;;5.70;;
62863;SDS011;48954;59.950;11.014;2023-06-14T10:11:33;6.30;;;5.10;;
62863;SDS011;48954;59.950;11.014;2023-06-14T10:14:02;6.20;;;5.60;;
62863;SDS011;48954;59.950;11.014;2023-06-14T10:16:39;6.00;;;5.40;;
62863;SDS011;48954;59.950;11.014;2023-06-14T10:22:14;7.70;;;5.40;;
62863;SDS011;48954;59.950;11.014;2023-06-14T10:24:51;9.20;;;5.40;;
62863;SDS011;48954;59.950;11.014;2023-06-14T10:27:18;6.60;;;6.00;;
62863;SDS011;48954;59.950;11.014;2023-06-14T10:32:20;6.70;;;5.90;;
62863;SDS011;48954;59.950;11.014;2023-06-14T10:37:42;8.90;;;6.10;;
62863;SDS011;48954;59.950;11.014;2023-06-14T10:40:29;6.40;;;5.70;;
62863;SDS011;48954;59.950;11.014;2023-06-14T10:43:00;6.60;;;5.90;;
62863;SDS011;48954;59.950;11.014;2023-06-14T10:45:26;6.90;;;6.30;;
62863;SDS011;48954;59.950;11.014;2023-06-14T10:47:52;7.70;;;6.80;;
62863;SDS011;48954;59.950;11.014;2023-06-14T10:50:29;7.20;;;6.50;;
62863;SDS011;48954;59.950;11.014;2023-06-14T10:52:56;7.90;;;6.80;;
62863;SDS011;48954;59.950;11.014;2023-06-14T10:55:22;7.30;;;6.60;;
62863;SDS011;48954;59.950;11.014;2023-06-14T10:57:50;8.10;;;6.40;;
62863;SDS011;48954;59.950;11.014;2023-06-14T11:00:19;6.70;;;6.00;;
62863;SDS011;48954;59.950;11.014;2023-06-14T11:05:41;7.10;;;6.40;;
62863;SDS011;48954;59.950;11.014;2023-06-14T11:10:54;7.50;;;6.60;;
62863;SDS011;48954;59.950;11.014;2023-06-14T11:13:25;10.40;;;6.70;;
62863;SDS011;48954;59.950;11.014;2023-06-14T11:15:53;7.20;;;6.50;;
62863;SDS011;48954;59.950;11.014;2023-06-14T11:18:21;7.10;;;6.40;;
62863;SDS011;48954;59.950;11.014;2023-06-14T11:20:48;7.60;;;5.90;;
62863;SDS011;48954;59.950;11.014;2023-06-14T11:23:15;12.20;;;6.60;;
62863;SDS011;48954;59.950;11.014;2023-06-14T11:25:42;6.60;;;5.40;;
62863;SDS011;48954;59.950;11.014;2023-06-14T11:28:15;6.90;;;6.10;;
62863;SDS011;48954;59.950;11.014;2023-06-14T11:30:42;6.90;;;5.80;;
62863;SDS011;48954;59.950;11.014;2023-06-14T11:33:16;7.80;;;6.10;;
62863;SDS011;48954;59.950;11.014;2023-06-14T11:35:46;8.00;;;5.90;;
62863;SDS011;48954;59.950;11.014;2023-06-14T11:38:13;7.50;;;6.00;;
62863;SDS011;48954;59.950;11.014;2023-06-14T11:40:39;6.50;;;5.90;;
62863;SDS011;48954;59.950;11.014;2023-06-14T11:43:06;7.00;;;6.20;;
62863;SDS011;48954;59.950;11.014;2023-06-14T11:45:35;6.50;;;5.70;;
62863;SDS011;48954;59.950;11.014;2023-06-14T11:48:03;7.20;;;6.10;;
62863;SDS011;48954;59.950;11.014;2023-06-14T11:50:30;8.80;;;5.40;;
62863;SDS011;48954;59.950;11.014;2023-06-14T11:52:57;8.20;;;6.10;;
62863;SDS011;48954;59.950;11.014;2023-06-14T11:55:30;10.30;;;6.10;;
62863;SDS011;48954;59.950;11.014;2023-06-14T11:57:59;9.10;;;6.30;;
62863;SDS011;48954;59.950;11.014;2023-06-14T12:00:29;9.40;;;5.90;;
62863;SDS011;48954;59.950;11.014;2023-06-14T12:02:56;9.60;;;6.00;;
62863;SDS011;48954;59.950;11.014;2023-06-14T12:05:23;7.10;;;5.70;;
62863;SDS011;48954;59.950;11.014;2023-06-14T12:07:57;7.60;;;5.90;;
62863;SDS011;48954;59.950;11.014;2023-06-14T12:10:29;8.20;;;6.00;;
62863;SDS011;48954;59.950;11.014;2023-06-14T12:12:59;8.20;;;5.70;;
62863;SDS011;48954;59.950;11.014;2023-06-14T12:15:28;7.60;;;5.90;;
62863;SDS011;48954;59.950;11.014;2023-06-14T12:17:57;8.30;;;5.90;;
62863;SDS011;48954;59.950;11.014;2023-06-14T12:20:29;9.00;;;6.40;;
62863;SDS011;48954;59.950;11.014;2023-06-14T12:22:58;7.70;;;5.90;;
62863;SDS011;48954;59.950;11.014;2023-06-14T12:25:31;8.50;;;5.70;;
62863;SDS011;48954;59.950;11.014;2023-06-14T12:28:05;11.20;;;5.90;;
62863;SDS011;48954;59.950;11.014;2023-06-14T12:30:51;8.50;;;6.00;;
62863;SDS011;48954;59.950;11.014;2023-06-14T12:33:22;6.60;;;6.00;;
62863;SDS011;48954;59.950;11.014;2023-06-14T12:35:49;8.50;;;5.90;;
62863;SDS011;48954;59.950;11.014;2023-06-14T12:38:16;6.40;;;5.40;;
62863;SDS011;48954;59.950;11.014;2023-06-14T12:40:43;8.20;;;6.00;;
62863;SDS011;48954;59.950;11.014;2023-06-14T12:43:10;7.20;;;6.50;;
62863;SDS011;48954;59.950;11.014;2023-06-14T12:45:38;7.50;;;5.60;;
62863;SDS011;48954;59.950;11.014;2023-06-14T12:48:04;6.20;;;5.10;;
62863;SDS011;48954;59.950;11.014;2023-06-14T12:50:31;9.20;;;5.80;;
62863;SDS011;48954;59.950;11.014;2023-06-14T12:52:57;9.70;;;5.90;;
62863;SDS011;48954;59.950;11.014;2023-06-14T12:55:27;5.90;;;5.20;;
62863;SDS011;48954;59.950;11.014;2023-06-14T12:57:54;6.50;;;5.90;;
62863;SDS011;48954;59.950;11.014;2023-06-14T13:00:20;7.40;;;6.50;;
62863;SDS011;48954;59.950;11.014;2023-06-14T13:02:52;8.20;;;6.30;;
62863;SDS011;48954;59.950;11.014;2023-06-14T13:05:21;8.40;;;6.10;;
62863;SDS011;48954;59.950;11.014;2023-06-14T13:07:50;9.10;;;5.90;;
62863;SDS011;48954;59.950;11.014;2023-06-14T13:10:17;7.30;;;6.10;;
62863;SDS011;48954;59.950;11.014;2023-06-14T13:12:44;7.10;;;5.80;;
62863;SDS011;48954;59.950;11.014;2023-06-14T13:15:26;7.70;;;5.80;;
62863;SDS011;48954;59.950;11.014;2023-06-14T13:17:54;6.90;;;6.10;;
62863;SDS011;48954;59.950;11.014;2023-06-14T13:20:24;7.60;;;6.00;;
62863;SDS011;48954;59.950;11.014;2023-06-14T13:22:51;7.40;;;6.10;;
62863;SDS011;48954;59.950;11.014;2023-06-14T13:25:18;8.10;;;5.50;;
62863;SDS011;48954;59.950;11.014;2023-06-14T13:27:44;6.80;;;5.90;;
62863;SDS011;48954;59.950;11.014;2023-06-14T13:30:12;8.50;;;5.50;;
62863;SDS011;48954;59.950;11.014;2023-06-14T13:32:49;6.30;;;5.70;;
62863;SDS011;48954;59.950;11.014;2023-06-14T13:35:15;6.60;;;5.70;;
62863;SDS011;48954;59.950;11.014;2023-06-14T13:37:42;6.70;;;5.40;;
62863;SDS011;48954;59.950;11.014;2023-06-14T13:40:09;7.20;;;5.90;;
62863;SDS011;48954;59.950;11.014;2023-06-14T13:42:37;9.80;;;5.50;;
62863;SDS011;48954;59.950;11.014;2023-06-14T13:45:05;8.00;;;5.10;;
62863;SDS011;48954;59.950;11.014;2023-06-14T13:47:32;6.80;;;5.40;;
62863;SDS011;48954;59.950;11.014;2023-06-14T13:49:59;6.70;;;5.10;;
62863;SDS011;48954;59.950;11.014;2023-06-14T13:52:27;5.70;;;5.10;;
62863;SDS011;48954;59.950;11.014;2023-06-14T13:54:54;6.50;;;5.50;;
62863;SDS011;48954;59.950;11.014;2023-06-14T13:57:20;6.80;;;5.70;;
62863;SDS011;48954;59.950;11.014;2023-06-14T13:59:47;6.40;;;5.60;;
62863;SDS011;48954;59.950;11.014;2023-06-14T14:02:14;7.40;;;6.10;;
62863;SDS011;48954;59.950;11.014;2023-06-14T14:04:41;7.30;;;5.20;;
62863;SDS011;48954;59.950;11.014;2023-06-14T14:07:08;6.40;;;5.70;;
62863;SDS011;48954;59.950;11.014;2023-06-14T14:09:38;6.90;;;5.80;;
62863;SDS011;48954;59.950;11.014;2023-06-14T14:12:09;5.90;;;5.30;;
62863;SDS011;48954;59.950;11.014;2023-06-14T14:14:35;6.80;;;4.90;;
62863;SDS011;48954;59.950;11.014;2023-06-14T14:17:02;7.10;;;5.60;;
62863;SDS011;48954;59.950;11.014;2023-06-14T14:19:29;6.70;;;6.00;;
62863;SDS011;48954;59.950;11.014;2023-06-14T14:21:55;7.70;;;6.50;;
62863;SDS011;48954;59.950;11.014;2023-06-14T14:24:22;7.90;;;6.50;;
62863;SDS011;48954;59.950;11.014;2023-06-14T14:26:49;7.10;;;6.40;;
62863;SDS011;48954;59.950;11.014;2023-06-14T14:29:30;7.90;;;7.10;;
62863;SDS011;48954;59.950;11.014;2023-06-14T14:31:57;7.20;;;6.20;;
62863;SDS011;48954;59.950;11.014;2023-06-14T14:34:24;7.00;;;6.10;;
62863;SDS011;48954;59.950;11.014;2023-06-14T14:36:51;6.60;;;6.00;;
62863;SDS011;48954;59.950;11.014;2023-06-14T14:39:19;8.00;;;6.00;;
62863;SDS011;48954;59.950;11.014;2023-06-14T14:41:47;8.20;;;5.60;;
62863;SDS011;48954;59.950;11.014;2023-06-14T14:44:14;8.00;;;6.40;;
62863;SDS011;48954;59.950;11.014;2023-06-14T14:46:40;8.40;;;6.30;;
62863;SDS011;48954;59.950;11.014;2023-06-14T14:49:07;9.50;;;6.50;;
62863;SDS011;48954;59.950;11.014;2023-06-14T14:51:37;7.00;;;5.60;;